WetterOnline ( http://www.wetteronline.de )

Wetter aktuell Chiemsee

Aktuelles Wetter: Chieming (553m)

6-stündlich | Neueste Meldungen
Ortszeit Temperatur Wetter
So, 16.12. 1:00 -9.3° C wolkenlos
Sa, 15.12. 19:00 -3.5° C bedeckt
Sa, 15.12. 13:00 -3.1° C bedeckt
Sa, 15.12. 7:00 -3.4° C Schneefall
Sa, 15.12. 1:00 -3.3° C bedeckt
Fr, 14.12. 19:00 -3.7° C bedeckt
Fr, 14.12. 13:00 -3.6° C bedeckt
Fr, 14.12. 7:00 -3.7° C bedeckt
Ortszeit Temperatur Wetter
So, 16.12. 5:00 -8.1° C bedeckt
So, 16.12. 4:50 -8.1° C bedeckt
So, 16.12. 4:40 -7.8° C bedeckt
So, 16.12. 4:30 -7.4° C bedeckt
So, 16.12. 4:20 -7.4° C bedeckt
So, 16.12. 4:10 -7.0° C bedeckt
So, 16.12. 4:00 -7.6° C bedeckt
So, 16.12. 3:30 -8.6° C wolkenlos
So, 16.12. 3:00 -10.3° C wolkenlos
So, 16.12. 2:30 -8.8° C wolkenlos
So, 16.12. 2:00 -8.5° C wolkenlos
Ortszeit Relative Feuchte Sichtweite
So, 16.12. 1:00 89% 14 km
Sa, 15.12. 19:00 84% 8 km
Sa, 15.12. 13:00 82% 10 km
Sa, 15.12. 7:00 89% 7 km
Sa, 15.12. 1:00 80% 12 km
Fr, 14.12. 19:00 85% 11 km
Fr, 14.12. 13:00 76% 13 km
Fr, 14.12. 7:00 87% 12 km
Ortszeit Relative Feuchte Sichtweite
So, 16.12. 5:00 87% 14 km
So, 16.12. 4:50 87% -
So, 16.12. 4:40 85% -
So, 16.12. 4:30 84% 30 km
So, 16.12. 4:20 84% -
So, 16.12. 4:10 82% -
So, 16.12. 4:00 83% 28 km
So, 16.12. 3:30 85% 20 km
So, 16.12. 3:00 87% 14 km
So, 16.12. 2:30 87% 13 km
So, 16.12. 2:00 92% 9 km
Ortszeit Niederschlagsmenge Niederschlagsart
So, 16.12. 1:00 0.0 l/m2 in 6 Std. -
Sa, 15.12. 19:00 0.1 l/m2 in 12 Std. -
Sa, 15.12. 13:00 0.1 l/m2 in 6 Std. Schnee, Regen
Sa, 15.12. 7:00 0.1 l/m2 in 12 Std. Schnee, Sprühregen
Sa, 15.12. 1:00 0.1 l/m2 in 6 Std. Schnee
Fr, 14.12. 19:00 0.0 l/m2 in 12 Std. -
Fr, 14.12. 13:00 0.0 l/m2 in 6 Std. -
Fr, 14.12. 7:00 0.0 l/m2 in 12 Std. -
Ortszeit Niederschlagsmenge Niederschlagsart
So, 16.12. 5:00 0.0 l/m2 in 1 Std. -
So, 16.12. 4:50 keine Meldung -
So, 16.12. 4:40 keine Meldung -
So, 16.12. 4:30 0.0 l/m2 in 1 Std. -
So, 16.12. 4:20 keine Meldung -
So, 16.12. 4:10 keine Meldung -
So, 16.12. 4:00 0.0 l/m2 in 1 Std. -
So, 16.12. 3:30 0.0 l/m2 in 1 Std. -
So, 16.12. 3:00 0.0 l/m2 in 1 Std. -
So, 16.12. 2:30 0.0 l/m2 in 1 Std. -
So, 16.12. 2:00 0.0 l/m2 in 1 Std. -
Ortszeit Stärke Spitze Richtung
km/h Bft. km/h Grad Sektor
So, 16.12. 1:00 11 2 18 70° O
Sa, 15.12. 19:00 9 2 17 80° O
Sa, 15.12. 13:00 7 2 17 80° O
Sa, 15.12. 7:00 6 1 17 70° O
Sa, 15.12. 1:00 4 1 14 150° SO
Fr, 14.12. 19:00 4 1 14 170° S
Fr, 14.12. 13:00 7 2 18 70° O
Fr, 14.12. 7:00 4 1 18 110° O
Ortszeit Stärke Spitze Richtung
km/h Bft. km/h Grad Sektor
So, 16.12. 5:00 14 3 22 60° NO
So, 16.12. 4:50 14 3 - 60° NO
So, 16.12. 4:40 19 3 - 60° NO
So, 16.12. 4:30 7 2 22 110° O
So, 16.12. 4:20 7 2 - 110° O
So, 16.12. 4:10 14 3 - 80° O
So, 16.12. 4:00 14 3 22 80° O
So, 16.12. 3:30 13 3 22 90° O
So, 16.12. 3:00 14 3 18 70° O
So, 16.12. 2:30 11 2 19 90° O
So, 16.12. 2:00 19 3 22 80° O
Ortszeit Untergrenze Bedeckung Gattung
total tief tief mittel hoch
So, 16.12. 1:00 - 0/8 0/8 - - -
Sa, 15.12. 19:00 750 m 8/8 8/8 - - -
Sa, 15.12. 13:00 720 m 8/8 8/8 - - -
Sa, 15.12. 7:00 270 m 8/8 8/8 - - -
Sa, 15.12. 1:00 390 m 8/8 8/8 - - -
Fr, 14.12. 19:00 420 m 8/8 8/8 - - -
Fr, 14.12. 13:00 420 m 8/8 8/8 - - -
Fr, 14.12. 7:00 300 m 8/8 8/8 - - -
Ortszeit Bedeckungsgrad in Achtel und Wolkenuntergrenze
So, 16.12. 5:00 8(4800m)
So, 16.12. 4:50 8(4800m)
So, 16.12. 4:40 8(4800m)
So, 16.12. 4:30 8(5100m)
So, 16.12. 4:20 8(5100m)
So, 16.12. 4:10 8(5100m)
So, 16.12. 4:00 7(5100m) 8(5700m)
So, 16.12. 3:30 4(5400m)
So, 16.12. 3:00 keine Wolken
So, 16.12. 2:30 keine Wolken
So, 16.12. 2:00 keine Wolken
Ortszeit Luftdruck NN (hPa) Tendenz (hPa in 3 Std.)
So, 16.12. 1:00 1023 - 2,3
Sa, 15.12. 19:00 1026 - 0,4
Sa, 15.12. 13:00 1027 - 1,0
Sa, 15.12. 7:00 1027 + 0,5
Sa, 15.12. 1:00 1025 + 0,2
Fr, 14.12. 19:00 1024 + 1,3
Fr, 14.12. 13:00 1022 + 0,3
Fr, 14.12. 7:00 1020 + 0,9
Ortszeit Luftdruck NN (hPa) Tendenz (hPa in 3 Std.)
So, 16.12. 5:00 1019 - 2,2
So, 16.12. 4:50 1019 keine Meldung
So, 16.12. 4:40 1019 keine Meldung
So, 16.12. 4:30 1019 - 2,5
So, 16.12. 4:20 1019 keine Meldung
So, 16.12. 4:10 1019 keine Meldung
So, 16.12. 4:00 1019 - 3,0
So, 16.12. 3:30 1020 - 2,6
So, 16.12. 3:00 1022 - 2,1
So, 16.12. 2:30 1021 - 2,3
So, 16.12. 2:00 1022 - 2,4
Ortszeit Schneehöhe (cm)
So, 16.12. 1:00 1
Sa, 15.12. 19:00 1
Sa, 15.12. 13:00 1
Sa, 15.12. 7:00 2
Sa, 15.12. 1:00 2
Fr, 14.12. 19:00 2
Fr, 14.12. 13:00 3
Fr, 14.12. 7:00 4
Ortszeit Schneehöhe (cm)
So, 16.12. 5:00 2
So, 16.12. 4:50 2
So, 16.12. 4:40 2
So, 16.12. 4:30 2
So, 16.12. 4:20 2
So, 16.12. 4:10 2
So, 16.12. 4:00 2
So, 16.12. 3:30 2
So, 16.12. 3:00 1
So, 16.12. 2:30 1
So, 16.12. 2:00 1
Link zu dieser Seite / Seite empfehlen

Das Wetter in ...